createdAt,value
2017-02-21T00:00:13.994Z,0
2017-02-21T00:00:54.773Z,0
2017-02-21T00:01:35.351Z,0
2017-02-21T00:02:15.869Z,0
2017-02-21T00:02:56.451Z,0
2017-02-21T00:03:36.997Z,0
2017-02-21T00:04:17.520Z,0
2017-02-21T00:04:58.015Z,0
2017-02-21T00:05:38.661Z,0
2017-02-21T00:06:19.115Z,0
2017-02-21T00:06:59.694Z,0
2017-02-21T00:07:40.213Z,0
2017-02-21T00:08:20.644Z,0
2017-02-21T00:09:01.306Z,0
2017-02-21T00:09:41.837Z,0
2017-02-21T00:10:22.268Z,0
2017-02-21T00:11:02.848Z,0
2017-02-21T00:11:43.387Z,0
2017-02-21T00:12:23.904Z,0
2017-02-21T00:13:04.402Z,0
2017-02-21T00:13:44.943Z,0
2017-02-21T00:14:25.476Z,0
2017-02-21T00:15:05.928Z,0
2017-02-21T00:15:46.522Z,0
2017-02-21T00:16:26.972Z,0
2017-02-21T00:17:07.417Z,0
2017-02-21T00:17:48.069Z,0
2017-02-21T00:18:28.586Z,0
2017-02-21T00:19:09.112Z,0
2017-02-21T00:19:49.565Z,0
2017-02-21T00:20:30.396Z,0
2017-02-21T00:21:10.948Z,0
2017-02-21T00:21:51.516Z,0
2017-02-21T00:22:32.242Z,0
2017-02-21T00:23:12.824Z,0
2017-02-21T00:23:53.308Z,0
2017-02-21T00:24:33.896Z,0
2017-02-21T00:25:14.387Z,0
2017-02-21T00:25:54.935Z,0
2017-02-21T00:26:35.415Z,0
2017-02-21T00:27:16.093Z,0
2017-02-21T00:27:56.604Z,0
2017-02-21T00:28:37.244Z,0
2017-02-21T00:29:17.718Z,0
2017-02-21T00:29:58.399Z,0
2017-02-21T00:30:38.943Z,0
2017-02-21T00:31:19.441Z,0
2017-02-21T00:32:00.028Z,0
2017-02-21T00:32:40.532Z,0
2017-02-21T00:33:21.043Z,0
2017-02-21T00:34:01.541Z,0
2017-02-21T00:34:42.191Z,0
2017-02-21T00:35:22.584Z,0
2017-02-21T00:36:03.182Z,0
2017-02-21T00:36:43.536Z,0
2017-02-21T00:37:24.125Z,0
2017-02-21T00:38:04.663Z,0
2017-02-21T00:38:45.969Z,0
2017-02-21T00:39:25.852Z,0
2017-02-21T00:40:06.326Z,0
2017-02-21T00:40:47.175Z,0
2017-02-21T00:41:27.685Z,0
2017-02-21T00:42:08.167Z,0
2017-02-21T00:42:48.666Z,0
2017-02-21T00:43:29.160Z,0
2017-02-21T00:44:09.669Z,0
2017-02-21T00:44:50.130Z,0
2017-02-21T00:45:30.609Z,0
2017-02-21T00:46:11.120Z,0
2017-02-21T00:46:51.589Z,0
2017-02-21T00:47:32.095Z,0
2017-02-21T00:48:12.609Z,0
2017-02-21T00:48:53.129Z,0
2017-02-21T00:49:33.621Z,0
2017-02-21T00:50:14.130Z,0
2017-02-21T00:50:54.618Z,0
2017-02-21T00:51:35.142Z,0
2017-02-21T00:52:15.696Z,0
2017-02-21T00:52:56.181Z,0
2017-02-21T00:53:36.671Z,0
2017-02-21T00:54:17.266Z,0
2017-02-21T00:54:57.709Z,0
2017-02-21T00:55:38.228Z,0
2017-02-21T00:56:18.746Z,0
2017-02-21T00:56:59.263Z,0
2017-02-21T00:57:39.787Z,0
2017-02-21T00:58:20.302Z,0
2017-02-21T00:59:01.032Z,0
2017-02-21T00:59:41.553Z,0
2017-02-21T01:00:22.076Z,0
2017-02-21T01:01:02.594Z,0
2017-02-21T01:01:43.124Z,0
2017-02-21T01:02:23.655Z,0
2017-02-21T01:03:04.182Z,0
2017-02-21T01:03:44.705Z,0
2017-02-21T01:04:25.215Z,0
2017-02-21T01:05:05.746Z,0
2017-02-21T01:05:46.268Z,0
2017-02-21T01:06:26.789Z,0
2017-02-21T01:07:07.303Z,0
2017-02-21T01:07:47.821Z,0
2017-02-21T01:08:28.337Z,0
2017-02-21T01:09:08.863Z,0
2017-02-21T01:09:49.382Z,0
2017-02-21T01:10:29.908Z,0
2017-02-21T01:11:10.423Z,0
2017-02-21T01:11:50.951Z,0
2017-02-21T01:12:31.479Z,0
2017-02-21T01:13:11.981Z,0
2017-02-21T01:13:52.504Z,0
2017-02-21T01:14:33.018Z,0
2017-02-21T01:15:13.537Z,0
2017-02-21T01:15:54.057Z,0
2017-02-21T01:16:34.581Z,0
2017-02-21T01:17:15.145Z,0
2017-02-21T01:17:57.500Z,0
2017-02-21T01:18:37.289Z,0
2017-02-21T01:19:17.824Z,0
2017-02-21T01:19:58.384Z,0
2017-02-21T01:20:38.810Z,0
2017-02-21T01:21:19.358Z,0
2017-02-21T01:21:59.872Z,0
2017-02-21T01:22:40.369Z,0
2017-02-21T01:23:20.851Z,0
2017-02-21T01:24:01.372Z,0
2017-02-21T01:24:41.895Z,0
2017-02-21T01:25:22.405Z,0
2017-02-21T01:26:02.922Z,0
2017-02-21T01:26:43.446Z,0
2017-02-21T01:27:23.985Z,0
2017-02-21T01:28:04.512Z,0
2017-02-21T01:28:45.033Z,0
2017-02-21T01:29:25.548Z,0
2017-02-21T01:30:06.062Z,0
2017-02-21T01:30:46.592Z,0
2017-02-21T01:31:27.105Z,0
2017-02-21T01:32:07.649Z,0
2017-02-21T01:32:48.174Z,0
2017-02-21T01:33:28.689Z,0
2017-02-21T01:34:09.199Z,0
2017-02-21T01:34:49.718Z,0
2017-02-21T01:35:30.241Z,0
2017-02-21T01:36:10.756Z,0
2017-02-21T01:36:51.280Z,0
2017-02-21T01:37:31.801Z,0
2017-02-21T01:38:12.317Z,0
2017-02-21T01:38:52.842Z,0
2017-02-21T01:39:33.388Z,0
2017-02-21T01:40:13.908Z,0
2017-02-21T01:40:54.439Z,0
2017-02-21T01:41:34.958Z,0
2017-02-21T01:42:15.542Z,0
2017-02-21T01:42:56.065Z,0
2017-02-21T01:43:36.604Z,0
2017-02-21T01:44:17.123Z,0
2017-02-21T01:44:57.642Z,0
2017-02-21T01:45:38.161Z,0
2017-02-21T01:46:18.681Z,0
2017-02-21T01:46:59.209Z,0
2017-02-21T01:47:39.728Z,0
2017-02-21T01:48:20.279Z,0
2017-02-21T01:49:00.774Z,0
2017-02-21T01:49:41.282Z,0
2017-02-21T01:50:21.827Z,0
2017-02-21T01:51:02.353Z,0
2017-02-21T01:51:42.876Z,0
2017-02-21T01:52:23.387Z,0
2017-02-21T01:53:03.908Z,0
2017-02-21T01:53:44.418Z,0
2017-02-21T01:54:24.942Z,0
2017-02-21T01:55:05.486Z,0
2017-02-21T01:55:46.015Z,0
2017-02-21T01:56:26.536Z,0
2017-02-21T01:57:07.067Z,0
2017-02-21T01:57:47.588Z,0
2017-02-21T01:58:28.118Z,0
2017-02-21T01:59:08.619Z,0
2017-02-21T01:59:49.142Z,0
2017-02-21T02:00:29.660Z,0
2017-02-21T02:01:10.211Z,0
2017-02-21T02:01:50.767Z,0
2017-02-21T02:02:31.269Z,0
2017-02-21T02:03:11.786Z,0
2017-02-21T02:03:52.318Z,0
2017-02-21T02:04:32.842Z,0
2017-02-21T02:05:13.347Z,0
2017-02-21T02:05:53.873Z,0
2017-02-21T02:06:34.380Z,0
2017-02-21T02:07:14.914Z,0
2017-02-21T02:07:55.421Z,0
2017-02-21T02:08:35.929Z,0
2017-02-21T02:09:16.454Z,0
2017-02-21T02:09:56.988Z,0
2017-02-21T02:10:37.475Z,0
2017-02-21T02:11:18.000Z,0
2017-02-21T02:11:58.518Z,0
2017-02-21T02:12:39.043Z,0
2017-02-21T02:13:19.561Z,0
2017-02-21T02:14:00.119Z,0
2017-02-21T02:14:40.615Z,0
2017-02-21T02:15:21.131Z,0
2017-02-21T02:16:01.660Z,0
2017-02-21T02:16:42.131Z,0
2017-02-21T02:17:22.649Z,0
2017-02-21T02:18:03.170Z,0
2017-02-21T02:18:43.692Z,0
2017-02-21T02:19:24.214Z,0
2017-02-21T02:20:04.729Z,0
2017-02-21T02:20:45.239Z,0
2017-02-21T02:21:25.774Z,0
2017-02-21T02:22:06.287Z,0
2017-02-21T02:22:46.811Z,0
2017-02-21T02:23:27.327Z,0
2017-02-21T02:24:07.870Z,0
2017-02-21T02:24:48.385Z,0
2017-02-21T02:25:28.904Z,0
2017-02-21T02:26:09.428Z,0
2017-02-21T02:26:49.958Z,0
2017-02-21T02:27:30.471Z,0
2017-02-21T02:28:11.027Z,0
2017-02-21T02:28:51.534Z,0
2017-02-21T02:29:32.063Z,0
2017-02-21T02:30:12.570Z,0
2017-02-21T02:30:53.082Z,0
2017-02-21T02:31:33.609Z,0
2017-02-21T02:32:14.146Z,0
2017-02-21T02:32:54.688Z,0
2017-02-21T02:33:35.213Z,0
2017-02-21T02:34:15.746Z,0
2017-02-21T02:34:56.262Z,0
2017-02-21T02:35:36.790Z,0
2017-02-21T02:36:17.337Z,0
2017-02-21T02:36:57.857Z,0
2017-02-21T02:37:38.388Z,0
2017-02-21T02:38:18.913Z,0
2017-02-21T02:38:59.436Z,0
2017-02-21T02:39:39.955Z,0
2017-02-21T02:40:20.473Z,0
2017-02-21T02:41:00.988Z,0
2017-02-21T02:41:41.505Z,0
2017-02-21T02:42:22.019Z,0
2017-02-21T02:43:02.557Z,0
2017-02-21T02:43:43.094Z,0
2017-02-21T02:44:23.596Z,0
2017-02-21T02:45:04.120Z,0
2017-02-21T02:45:44.667Z,0
2017-02-21T02:46:25.198Z,0
2017-02-21T02:47:05.724Z,0
2017-02-21T02:47:46.222Z,0
2017-02-21T02:48:26.753Z,0
2017-02-21T02:49:07.283Z,0
2017-02-21T02:49:47.792Z,0
2017-02-21T02:50:28.322Z,0
2017-02-21T02:51:08.834Z,0
2017-02-21T02:51:49.341Z,0
2017-02-21T02:52:29.890Z,0
2017-02-21T02:53:10.418Z,0
2017-02-21T02:53:50.936Z,0
2017-02-21T02:54:31.467Z,0
2017-02-21T02:55:11.987Z,0
2017-02-21T02:55:52.503Z,0
2017-02-21T02:56:33.030Z,0
2017-02-21T02:57:13.543Z,0
2017-02-21T02:57:54.061Z,0
2017-02-21T02:58:34.607Z,0
2017-02-21T02:59:15.136Z,0
2017-02-21T02:59:55.651Z,0
2017-02-21T03:00:36.161Z,0
2017-02-21T03:01:16.708Z,0
2017-02-21T03:01:57.234Z,0
2017-02-21T03:02:37.768Z,0
2017-02-21T03:03:18.282Z,0
2017-02-21T03:03:58.827Z,0
2017-02-21T03:04:39.352Z,0
2017-02-21T03:05:19.880Z,0
2017-02-21T03:06:00.394Z,0
2017-02-21T03:06:40.909Z,0
2017-02-21T03:07:21.435Z,0
2017-02-21T03:08:01.952Z,0
2017-02-21T03:08:42.490Z,0
2017-02-21T03:09:23.003Z,0
2017-02-21T03:10:03.522Z,0
2017-02-21T03:10:44.032Z,0
2017-02-21T03:11:24.557Z,0
2017-02-21T03:12:05.086Z,0
2017-02-21T03:12:45.623Z,0
2017-02-21T03:13:26.183Z,0
2017-02-21T03:14:06.693Z,0
2017-02-21T03:14:47.219Z,0
2017-02-21T03:15:27.741Z,0
2017-02-21T03:16:08.266Z,0
2017-02-21T03:16:48.768Z,0
2017-02-21T03:17:29.288Z,0
2017-02-21T03:18:09.824Z,0
2017-02-21T03:18:50.390Z,0
2017-02-21T03:19:30.906Z,0
2017-02-21T03:20:11.436Z,0
2017-02-21T03:20:52.051Z,0
2017-02-21T03:21:32.573Z,0
2017-02-21T03:22:13.091Z,0
2017-02-21T03:22:53.618Z,0
2017-02-21T03:23:34.148Z,0
2017-02-21T03:24:14.662Z,0
2017-02-21T03:24:55.194Z,0
2017-02-21T03:25:35.712Z,0
2017-02-21T03:26:16.239Z,0
2017-02-21T03:26:56.765Z,0
2017-02-21T03:27:37.288Z,0
2017-02-21T03:28:17.811Z,0
2017-02-21T03:28:58.333Z,0
2017-02-21T03:29:38.855Z,0
2017-02-21T03:30:19.375Z,0
2017-02-21T03:30:59.901Z,0
2017-02-21T03:31:40.427Z,0
2017-02-21T03:32:20.971Z,0
2017-02-21T03:33:01.501Z,0
2017-02-21T03:33:42.035Z,0
2017-02-21T03:34:22.555Z,0
2017-02-21T03:35:03.079Z,0
2017-02-21T03:35:43.600Z,0
2017-02-21T03:36:24.119Z,0
2017-02-21T03:37:04.635Z,0
2017-02-21T03:37:45.149Z,0
2017-02-21T03:38:25.691Z,0
2017-02-21T03:39:06.349Z,0
2017-02-21T03:39:46.876Z,0
2017-02-21T03:40:27.392Z,0
2017-02-21T03:41:07.919Z,0
2017-02-21T03:41:48.441Z,0
2017-02-21T03:42:28.976Z,0
2017-02-21T03:43:09.483Z,0
2017-02-21T03:43:50.018Z,0
2017-02-21T03:44:30.546Z,0
2017-02-21T03:45:11.149Z,0
2017-02-21T03:45:51.659Z,0
2017-02-21T03:46:32.179Z,0
2017-02-21T03:47:12.713Z,0
2017-02-21T03:47:53.247Z,0
2017-02-21T03:48:33.760Z,0
2017-02-21T03:49:14.280Z,0
2017-02-21T03:49:54.799Z,0
2017-02-21T03:50:35.315Z,0
2017-02-21T03:51:15.839Z,0
2017-02-21T03:51:56.472Z,0
2017-02-21T03:52:37.013Z,0
2017-02-21T03:53:17.507Z,0
2017-02-21T03:53:58.034Z,0
2017-02-21T03:54:38.558Z,0
2017-02-21T03:55:19.077Z,0
2017-02-21T03:55:59.586Z,0
2017-02-21T03:56:40.096Z,0
2017-02-21T03:57:20.649Z,0
2017-02-21T03:58:01.167Z,0
2017-02-21T03:58:41.685Z,0
2017-02-21T03:59:22.218Z,0
2017-02-21T04:00:02.742Z,0
2017-02-21T04:00:43.256Z,0
2017-02-21T04:01:23.770Z,0
2017-02-21T04:02:04.271Z,0
2017-02-21T04:02:44.824Z,0
2017-02-21T04:03:25.342Z,0
2017-02-21T04:04:05.872Z,0
2017-02-21T04:04:46.393Z,0
2017-02-21T04:05:26.922Z,0
2017-02-21T04:06:07.435Z,0
2017-02-21T04:06:47.955Z,0
2017-02-21T04:07:28.472Z,0
2017-02-21T04:08:09.008Z,0
2017-02-21T04:08:49.531Z,0
2017-02-21T04:09:30.054Z,0
2017-02-21T04:10:10.582Z,0
2017-02-21T04:10:52.110Z,0
2017-02-21T04:11:32.625Z,0
2017-02-21T04:12:13.162Z,0
2017-02-21T04:12:53.697Z,0
2017-02-21T04:13:34.223Z,0
2017-02-21T04:14:14.753Z,0
2017-02-21T04:14:55.272Z,0
2017-02-21T04:15:35.786Z,0
2017-02-21T04:16:16.308Z,0
2017-02-21T04:16:56.842Z,0
2017-02-21T04:17:37.372Z,0
2017-02-21T04:18:17.912Z,0
2017-02-21T04:18:58.430Z,0
2017-02-21T04:19:38.940Z,0
2017-02-21T04:20:19.476Z,0
2017-02-21T04:20:59.999Z,0
2017-02-21T04:21:40.524Z,0
2017-02-21T04:22:21.058Z,0
2017-02-21T04:23:01.573Z,0
2017-02-21T04:23:42.097Z,0
2017-02-21T04:24:22.619Z,0
2017-02-21T04:25:03.137Z,0
2017-02-21T04:25:43.655Z,0
2017-02-21T04:26:24.178Z,0
2017-02-21T04:27:04.709Z,0
2017-02-21T04:27:45.220Z,0
2017-02-21T04:28:25.743Z,0
2017-02-21T04:29:06.352Z,0
2017-02-21T04:29:46.868Z,0
2017-02-21T04:30:27.396Z,0
2017-02-21T04:31:07.913Z,0
2017-02-21T04:31:48.449Z,0
2017-02-21T04:32:28.972Z,0
2017-02-21T04:33:09.485Z,0
2017-02-21T04:33:50.006Z,0
2017-02-21T04:34:30.513Z,0
2017-02-21T04:35:11.036Z,0
2017-02-21T04:35:51.577Z,0
2017-02-21T04:36:32.104Z,0
2017-02-21T04:37:12.612Z,0
2017-02-21T04:37:53.121Z,0
2017-02-21T04:38:33.651Z,0
2017-02-21T04:39:14.180Z,0
2017-02-21T04:39:54.712Z,0
2017-02-21T04:40:35.233Z,0
2017-02-21T04:41:15.769Z,0
2017-02-21T04:41:56.259Z,0
2017-02-21T04:42:36.791Z,0
2017-02-21T04:43:17.320Z,0
2017-02-21T04:43:57.841Z,0
2017-02-21T04:44:38.358Z,0
2017-02-21T04:45:18.883Z,0
2017-02-21T04:45:59.402Z,0
2017-02-21T04:46:39.954Z,0
2017-02-21T04:47:20.448Z,0
2017-02-21T04:48:00.997Z,0
2017-02-21T04:48:41.519Z,0
2017-02-21T04:49:22.031Z,0
2017-02-21T04:50:02.543Z,0
2017-02-21T04:50:43.054Z,0
2017-02-21T04:51:23.577Z,0
2017-02-21T04:52:04.100Z,0
2017-02-21T04:52:44.627Z,0
2017-02-21T04:53:25.133Z,0
2017-02-21T04:54:05.654Z,0
2017-02-21T04:54:46.178Z,0
2017-02-21T04:55:26.732Z,0
2017-02-21T04:56:07.242Z,0
2017-02-21T04:56:47.776Z,0
2017-02-21T04:57:28.309Z,0
2017-02-21T04:58:08.802Z,0
2017-02-21T04:58:49.342Z,0
2017-02-21T04:59:29.864Z,0
2017-02-21T05:00:10.477Z,0
2017-02-21T05:00:50.979Z,0
2017-02-21T05:01:31.531Z,0
2017-02-21T05:02:12.061Z,0
2017-02-21T05:02:52.530Z,0
2017-02-21T05:03:33.056Z,0
2017-02-21T05:04:13.562Z,0
2017-02-21T05:04:54.088Z,0
2017-02-21T05:05:34.628Z,0
2017-02-21T05:06:15.154Z,0
2017-02-21T05:06:55.682Z,0
2017-02-21T05:07:36.191Z,0
2017-02-21T05:08:16.719Z,0
2017-02-21T05:08:57.234Z,0
2017-02-21T05:09:37.749Z,0
2017-02-21T05:10:18.266Z,0
2017-02-21T05:10:58.804Z,0
2017-02-21T05:11:39.308Z,0
2017-02-21T05:12:19.826Z,0
2017-02-21T05:13:00.419Z,0
2017-02-21T05:13:40.934Z,0
2017-02-21T05:14:21.447Z,0
2017-02-21T05:15:01.978Z,0
2017-02-21T05:15:42.493Z,0
2017-02-21T05:16:23.042Z,0
2017-02-21T05:17:03.546Z,0
2017-02-21T05:17:44.066Z,0
2017-02-21T05:18:24.586Z,0
2017-02-21T05:19:05.106Z,0
2017-02-21T05:19:45.641Z,0
2017-02-21T05:20:26.175Z,0
2017-02-21T05:21:06.687Z,0
2017-02-21T05:21:47.221Z,0
2017-02-21T05:22:27.749Z,0
2017-02-21T05:23:08.282Z,0
2017-02-21T05:23:48.809Z,0
2017-02-21T05:24:29.356Z,0
2017-02-21T05:25:09.859Z,0
2017-02-21T05:25:50.369Z,0
2017-02-21T05:26:30.973Z,0
2017-02-21T05:27:11.498Z,0
2017-02-21T05:27:52.032Z,0
2017-02-21T05:28:32.540Z,0
2017-02-21T05:29:13.056Z,0
2017-02-21T05:29:53.591Z,0
2017-02-21T05:30:34.116Z,0
2017-02-21T05:31:14.639Z,0
2017-02-21T05:31:55.159Z,0
2017-02-21T05:32:35.665Z,0
2017-02-21T05:33:16.183Z,0
2017-02-21T05:33:56.695Z,0
2017-02-21T05:34:37.204Z,0
2017-02-21T05:35:17.696Z,0
2017-02-21T05:35:58.223Z,0
2017-02-21T05:36:38.687Z,0
2017-02-21T05:37:19.204Z,0
2017-02-21T05:37:59.706Z,0
2017-02-21T05:38:40.207Z,0
2017-02-21T05:39:20.740Z,0
2017-02-21T05:40:01.263Z,0
2017-02-21T05:40:41.715Z,0
2017-02-21T05:41:22.223Z,0
2017-02-21T05:42:02.741Z,0
2017-02-21T05:42:43.217Z,0
2017-02-21T05:43:23.713Z,0
2017-02-21T05:44:04.199Z,0
2017-02-21T05:44:44.729Z,0
2017-02-21T05:45:25.259Z,0
2017-02-21T05:46:05.701Z,0
2017-02-21T05:46:46.267Z,0
2017-02-21T05:47:26.806Z,0
2017-02-21T05:48:07.289Z,0
2017-02-21T05:48:47.729Z,0
2017-02-21T05:49:28.283Z,0
2017-02-21T05:50:08.854Z,0
2017-02-21T05:50:49.331Z,0
2017-02-21T05:51:29.826Z,0
2017-02-21T05:52:10.383Z,0
2017-02-21T05:52:50.805Z,0
2017-02-21T05:53:31.494Z,0
2017-02-21T05:54:12.022Z,0
2017-02-21T05:54:52.598Z,0
2017-02-21T05:55:33.070Z,0
2017-02-21T05:56:13.585Z,0
2017-02-21T05:56:54.696Z,0
2017-02-21T05:57:34.928Z,0
2017-02-21T05:58:15.394Z,0
2017-02-21T05:58:56.430Z,0
2017-02-21T05:59:37.580Z,0
2017-02-21T06:00:18.090Z,0
2017-02-21T06:00:59.318Z,0
2017-02-21T06:01:39.846Z,0
2017-02-21T06:02:20.478Z,0
2017-02-21T06:03:00.951Z,0
2017-02-21T06:03:41.446Z,0
2017-02-21T06:04:21.977Z,0
2017-02-21T06:05:02.420Z,0
2017-02-21T06:05:43.052Z,0
2017-02-21T06:06:23.505Z,0
2017-02-21T06:07:04.019Z,0
2017-02-21T06:07:44.508Z,0
2017-02-21T06:08:25.078Z,0
2017-02-21T06:09:05.604Z,0
2017-02-21T06:09:46.154Z,0
2017-02-21T06:10:26.693Z,0
2017-02-21T06:11:07.178Z,0
2017-02-21T06:11:47.923Z,0
2017-02-21T06:12:28.218Z,0
2017-02-21T06:13:08.724Z,4
2017-02-21T06:13:59.393Z,4
2017-02-21T06:14:39.979Z,4
2017-02-21T06:15:20.691Z,4
2017-02-21T06:16:01.172Z,0
2017-02-21T06:16:41.664Z,4
2017-02-21T06:17:22.157Z,4
2017-02-21T06:18:02.683Z,4
2017-02-21T06:18:43.244Z,4
2017-02-21T06:19:23.795Z,4
2017-02-21T06:20:04.276Z,8
2017-02-21T06:20:44.737Z,8
2017-02-21T06:21:25.657Z,8
2017-02-21T06:22:06.137Z,8
2017-02-21T06:22:46.584Z,4
2017-02-21T06:23:27.124Z,8
2017-02-21T06:24:07.632Z,8
2017-02-21T06:24:48.201Z,8
2017-02-21T06:25:28.731Z,4
2017-02-21T06:26:09.158Z,8
2017-02-21T06:26:49.710Z,8
2017-02-21T06:27:30.189Z,12
2017-02-21T06:28:10.675Z,12
2017-02-21T06:28:51.146Z,12
2017-02-21T06:29:32.120Z,12
2017-02-21T06:30:12.499Z,12
2017-02-21T06:30:53.199Z,12
2017-02-21T06:31:33.604Z,16
2017-02-21T06:32:14.131Z,16
2017-02-21T06:32:54.683Z,20
2017-02-21T06:33:35.096Z,16
2017-02-21T06:34:15.989Z,16
2017-02-21T06:34:56.899Z,16
2017-02-21T06:35:37.317Z,20
2017-02-21T06:36:17.992Z,20
2017-02-21T06:36:58.549Z,24
2017-02-21T06:37:39.180Z,28
2017-02-21T06:38:19.661Z,24
2017-02-21T06:39:00.156Z,24
2017-02-21T06:39:40.613Z,28
2017-02-21T06:40:21.680Z,28
2017-02-21T06:41:02.372Z,28
2017-02-21T06:41:43.475Z,28
2017-02-21T06:42:23.969Z,36
2017-02-21T06:43:04.630Z,36
2017-02-21T06:43:45.133Z,36
2017-02-21T06:44:25.681Z,40
2017-02-21T06:45:06.181Z,36
2017-02-21T06:45:46.663Z,40
2017-02-21T06:46:27.146Z,44
2017-02-21T06:47:07.655Z,48
2017-02-21T06:47:48.200Z,44
2017-02-21T06:48:28.705Z,48
2017-02-21T06:49:09.201Z,48
2017-02-21T06:49:49.885Z,56
2017-02-21T06:50:30.446Z,48
2017-02-21T06:51:10.917Z,60
2017-02-21T06:51:51.517Z,60
2017-02-21T06:52:32.189Z,52
2017-02-21T06:53:13.025Z,56
2017-02-21T06:53:53.517Z,60
2017-02-21T06:54:34.114Z,56
2017-02-21T06:55:14.521Z,56
2017-02-21T06:55:54.990Z,56
2017-02-21T06:56:35.496Z,72
2017-02-21T06:57:15.996Z,68
2017-02-21T06:57:56.495Z,60
2017-02-21T06:58:37.054Z,64
2017-02-21T06:59:17.592Z,64
2017-02-21T06:59:58.082Z,64
2017-02-21T07:00:38.670Z,72
2017-02-21T07:01:19.131Z,76
2017-02-21T07:01:59.742Z,72
2017-02-21T07:02:40.221Z,88
2017-02-21T07:03:20.701Z,80
2017-02-21T07:04:01.231Z,68
2017-02-21T07:04:41.696Z,60
2017-02-21T07:05:22.216Z,60
2017-02-21T07:06:02.713Z,48
2017-02-21T07:06:43.229Z,44
2017-02-21T07:07:23.726Z,56
2017-02-21T07:08:04.203Z,72
2017-02-21T07:08:44.738Z,80
2017-02-21T07:09:25.271Z,124
2017-02-21T07:10:05.779Z,136
2017-02-21T07:10:46.384Z,168
2017-02-21T07:11:26.910Z,176
2017-02-21T07:12:07.400Z,168
2017-02-21T07:12:47.938Z,192
2017-02-21T07:13:28.383Z,192
2017-02-21T07:14:08.879Z,184
2017-02-21T07:14:49.373Z,176
2017-02-21T07:15:29.880Z,148
2017-02-21T07:16:10.390Z,124
2017-02-21T07:16:50.891Z,100
2017-02-21T07:17:31.402Z,92
2017-02-21T07:18:11.870Z,88
2017-02-21T07:18:52.347Z,84
2017-02-21T07:19:32.905Z,88
2017-02-21T07:20:13.469Z,104
2017-02-21T07:20:53.915Z,132
2017-02-21T07:21:34.539Z,148
2017-02-21T07:22:15.059Z,184
2017-02-21T07:22:55.525Z,180
2017-02-21T07:23:36.091Z,132
2017-02-21T07:24:16.576Z,152
2017-02-21T07:24:57.132Z,200
2017-02-21T07:25:37.589Z,232
2017-02-21T07:26:18.147Z,240
2017-02-21T07:26:58.671Z,240
2017-02-21T07:27:39.154Z,204
2017-02-21T07:28:19.678Z,220
2017-02-21T07:29:00.160Z,204
2017-02-21T07:29:40.705Z,208
2017-02-21T07:30:21.213Z,196
2017-02-21T07:31:01.672Z,196
2017-02-21T07:31:42.312Z,208
2017-02-21T07:32:22.703Z,216
2017-02-21T07:33:03.178Z,304
2017-02-21T07:33:43.664Z,272
2017-02-21T07:34:24.183Z,300
2017-02-21T07:35:04.673Z,300
2017-02-21T07:35:45.173Z,252
2017-02-21T07:36:25.707Z,272
2017-02-21T07:37:06.242Z,252
2017-02-21T07:37:46.722Z,344
2017-02-21T07:38:27.278Z,336
2017-02-21T07:39:07.760Z,432
2017-02-21T07:39:48.256Z,400
2017-02-21T07:40:28.735Z,432
2017-02-21T07:41:09.233Z,424
2017-02-21T07:41:49.776Z,584
2017-02-21T07:42:30.293Z,596
2017-02-21T07:43:10.763Z,556
2017-02-21T07:43:51.254Z,504
2017-02-21T07:44:31.738Z,508
2017-02-21T07:45:12.251Z,544
2017-02-21T07:45:52.766Z,600
2017-02-21T07:46:33.254Z,568
2017-02-21T07:47:13.735Z,576
2017-02-21T07:47:54.237Z,568
2017-02-21T07:48:34.729Z,556
2017-02-21T07:49:15.261Z,492
2017-02-21T07:49:55.705Z,484
2017-02-21T07:50:36.199Z,492
2017-02-21T07:51:16.681Z,488
2017-02-21T07:51:58.047Z,560
2017-02-21T07:52:38.535Z,540
2017-02-21T07:53:19.019Z,572
2017-02-21T07:53:59.529Z,620
2017-02-21T07:54:40.008Z,592
2017-02-21T07:55:20.525Z,608
2017-02-21T07:56:01.189Z,616
2017-02-21T07:56:41.503Z,632
2017-02-21T07:57:22.096Z,620
2017-02-21T07:58:02.565Z,656
2017-02-21T07:58:43.091Z,676
2017-02-21T07:59:23.568Z,580
2017-02-21T08:00:04.096Z,576
2017-02-21T08:00:44.610Z,796
2017-02-21T08:01:25.149Z,780
2017-02-21T08:02:05.662Z,792
2017-02-21T08:02:46.184Z,892
2017-02-21T08:03:26.704Z,884
2017-02-21T08:04:07.241Z,776
2017-02-21T08:04:47.780Z,888
2017-02-21T08:05:28.301Z,880
2017-02-21T08:06:08.823Z,780
2017-02-21T08:06:49.351Z,884
2017-02-21T08:07:29.874Z,852
2017-02-21T08:08:10.426Z,928
2017-02-21T08:08:50.936Z,924
2017-02-21T08:09:31.458Z,884
2017-02-21T08:10:11.979Z,852
2017-02-21T08:10:52.507Z,992
2017-02-21T08:11:33.037Z,980
2017-02-21T08:12:13.556Z,980
2017-02-21T08:12:54.091Z,980
2017-02-21T08:13:34.622Z,940
2017-02-21T08:14:15.177Z,952
2017-02-21T08:14:55.657Z,996
2017-02-21T08:15:36.211Z,1112
2017-02-21T08:16:16.753Z,1072
2017-02-21T08:16:57.343Z,1272
2017-02-21T08:17:37.868Z,1256
2017-02-21T08:18:18.381Z,1208
2017-02-21T08:18:58.909Z,1564
2017-02-21T08:19:39.434Z,1632
2017-02-21T08:20:19.957Z,1600
2017-02-21T08:21:00.511Z,1764
2017-02-21T08:21:41.025Z,1472
2017-02-21T08:22:21.596Z,1416
2017-02-21T08:23:02.059Z,1372
2017-02-21T08:23:42.550Z,1336
2017-02-21T08:24:23.045Z,992
2017-02-21T08:25:04.171Z,840
2017-02-21T08:25:44.068Z,768
2017-02-21T08:26:24.514Z,844
2017-02-21T08:27:05.021Z,896
2017-02-21T08:27:45.526Z,924
2017-02-21T08:28:26.047Z,944
2017-02-21T08:29:06.573Z,1256
2017-02-21T08:29:47.090Z,1148
2017-02-21T08:30:27.602Z,1116
2017-02-21T08:31:08.119Z,932
2017-02-21T08:31:48.676Z,1040
2017-02-21T08:32:29.186Z,1020
2017-02-21T08:33:09.714Z,1036
2017-02-21T08:33:50.228Z,1064
2017-02-21T08:34:30.781Z,1136
2017-02-21T08:35:11.297Z,1072
2017-02-21T08:35:51.817Z,1120
2017-02-21T08:36:32.351Z,984
2017-02-21T08:37:12.884Z,1048
2017-02-21T08:37:53.391Z,1024
2017-02-21T08:38:33.898Z,836
2017-02-21T08:39:14.418Z,712
2017-02-21T08:39:54.906Z,752
2017-02-21T08:40:35.447Z,824
2017-02-21T08:41:15.984Z,728
2017-02-21T08:41:56.464Z,756
2017-02-21T08:42:36.986Z,696
2017-02-21T08:43:17.515Z,716
2017-02-21T08:43:57.997Z,828
2017-02-21T08:44:38.536Z,820
2017-02-21T08:45:19.046Z,836
2017-02-21T08:45:59.565Z,804
2017-02-21T08:46:40.093Z,840
2017-02-21T08:47:20.641Z,932
2017-02-21T08:48:01.104Z,884
2017-02-21T08:48:41.600Z,856
2017-02-21T08:49:22.119Z,844
2017-02-21T08:50:02.728Z,948
2017-02-21T08:50:43.264Z,928
2017-02-21T08:51:23.809Z,1016
2017-02-21T08:52:04.324Z,1024
2017-02-21T08:52:44.832Z,1076
2017-02-21T08:53:25.395Z,976
2017-02-21T08:54:05.865Z,1192
2017-02-21T08:54:46.389Z,1304
2017-02-21T08:55:26.906Z,1204
2017-02-21T08:56:07.434Z,1176
2017-02-21T08:56:47.963Z,1176
2017-02-21T08:57:28.468Z,1160
2017-02-21T08:58:08.995Z,1048
2017-02-21T08:58:49.507Z,1184
2017-02-21T08:59:30.030Z,1236
2017-02-21T09:00:10.513Z,1308
2017-02-21T09:00:51.034Z,1556
2017-02-21T09:01:31.522Z,1556
2017-02-21T09:02:11.991Z,1300
2017-02-21T09:02:52.510Z,1264
2017-02-21T09:03:32.960Z,1272
2017-02-21T09:04:13.497Z,1184
2017-02-21T09:04:54.012Z,1292
2017-02-21T09:05:34.528Z,1492
2017-02-21T09:06:15.030Z,1480
2017-02-21T09:06:55.545Z,1472
2017-02-21T09:07:36.034Z,1596
2017-02-21T09:08:16.553Z,1492
2017-02-21T09:08:57.050Z,1720
2017-02-21T09:09:37.551Z,2152
2017-02-21T09:10:18.039Z,2124
2017-02-21T09:10:58.540Z,1804
2017-02-21T09:11:39.035Z,1756
2017-02-21T09:12:19.585Z,1800
2017-02-21T09:13:00.083Z,1884
2017-02-21T09:13:40.551Z,1732
2017-02-21T09:14:21.037Z,1640
2017-02-21T09:15:01.545Z,1376
2017-02-21T09:15:42.076Z,1320
2017-02-21T09:16:22.584Z,1328
2017-02-21T09:17:03.117Z,1340
2017-02-21T09:17:43.614Z,1268
2017-02-21T09:18:24.133Z,1116
2017-02-21T09:19:04.646Z,1028
2017-02-21T09:19:45.165Z,1160
2017-02-21T09:20:25.674Z,1164
2017-02-21T09:21:06.202Z,1444
2017-02-21T09:21:46.730Z,1392
2017-02-21T09:22:27.240Z,1576
2017-02-21T09:23:07.771Z,1712
2017-02-21T09:23:48.293Z,1864
2017-02-21T09:24:28.986Z,1908
2017-02-21T09:25:09.479Z,1892
2017-02-21T09:25:50.082Z,1712
2017-02-21T09:26:30.598Z,1704
2017-02-21T09:27:11.119Z,1976
2017-02-21T09:27:51.684Z,2072
2017-02-21T09:28:32.202Z,2328
2017-02-21T09:29:12.728Z,2180
2017-02-21T09:29:53.274Z,2176
2017-02-21T09:30:33.785Z,2052
2017-02-21T09:31:14.311Z,1656
2017-02-21T09:31:54.838Z,1592
2017-02-21T09:32:35.348Z,1664
2017-02-21T09:33:15.887Z,1824
2017-02-21T09:33:56.415Z,1896
2017-02-21T09:34:36.922Z,1744
2017-02-21T09:35:17.447Z,1888
2017-02-21T09:35:57.996Z,2508
2017-02-21T09:36:38.494Z,3052
2017-02-21T09:37:19.015Z,3364
2017-02-21T09:37:59.552Z,4116
2017-02-21T09:38:40.077Z,4284
2017-02-21T09:39:20.602Z,4492
2017-02-21T09:40:01.148Z,4420
2017-02-21T09:40:41.642Z,3592
2017-02-21T09:41:22.155Z,3304
2017-02-21T09:42:02.664Z,3300
2017-02-21T09:42:43.171Z,2984
2017-02-21T09:43:23.674Z,2684
2017-02-21T09:44:04.190Z,2588